Terminal Aerodrome Forecast
Issued by NWS Twin Cities, MN

Home | Current Version | Previous Version | Text Only | Print | Product List | Glossary Off
Versions: 1 2 3 4 5 6 7 8 9 10 11 12 13 14 15 16 17 18 19

757
FTUS43 KMPX 260545
TAFEAU
TAF
KEAU 260545Z 2606/2706 18005KT P6SM VCSH SCT045 OVC150
     FM261000 VRB03KT 6SM SHRA VCTS BKN040CB OVC120
     FM261400 28005KT P6SM -SHRA BKN040 OVC120
     FM261800 30005KT P6SM OVC040
     FM270000 VRB03KT P6SM FEW050=

USA.gov is the U.S. government's official web portal to all federal, state and local government web resources and services.